Latest Weather Observations for Amberley

IDQ60801

Issued at 6:02 pm EST Thursday 2 July 2015 (issued every 30 minutes, with the page automatically refreshed every 10 minutes)

About weather observations | Map of weather stations | Latest weather observations for QLD | Other Formats
Station Details ID: 040004 Name: AMBERLEY AMO Lat: -27.63 Lon: 152.71 Height: 24.2 m
Data from the previous 72 hours. | See also: Recent months at Amberley
Date/Time
EST
Temp
°C
App
Temp
°C
Dew
Point
Rel
Hum
%
Delta-T
°C
Wind Press
QNH
hPa
Press
MSL
hPa
Rain
since 9 am
mm
Dir
 
Spd
km/h
Gust
km/h
Spd
kts
Gust
kts
02/05:30pm 12.8 8.0 0.3 42 5.2 WNW 15 19 8 10 1018.8 - 0.0
02/05:00pm 15.1 10.5 -1.2 32 6.7 WNW 13 19 7 10 1018.6 - 0.0
02/04:30pm 15.9 10.6 -0.9 31 7.0 WNW 17 26 9 14 1018.3 - 0.0
02/04:00pm 17.4 11.1 -3.6 23 8.4 W 20 30 11 16 1018.4 - 0.0
02/03:30pm 19.1 12.1 -3.9 21 9.3 W 24 33 13 18 1018.3 - 0.0
02/03:00pm 19.5 12.9 -3.0 21 9.3 W 22 37 12 20 1018.1 1018.1 0.0
02/02:30pm 19.5 12.7 -2.1 23 9.1 W 24 35 13 19 1018.3 - 0.0
02/02:00pm 20.3 13.7 -0.5 24 9.1 W 24 33 13 18 1018.4 - 0.0
02/01:30pm 18.6 12.7 1.4 31 7.7 WNW 22 32 12 17 1018.5 - 0.0
02/01:00pm 18.8 12.0 0.7 29 8.0 WNW 26 37 14 20 1019.0 - 0.0
02/12:30pm 19.3 12.9 3.3 34 7.5 WNW 26 33 14 18 1019.4 - 0.0
02/12:00pm 19.4 14.1 2.8 33 7.7 W 20 28 11 15 1019.8 1019.9 0.0
02/11:30am 19.3 14.7 3.6 35 7.4 W 17 22 9 12 1020.2 - 0.0
02/10:30am 18.2 14.5 6.2 45 5.9 W 15 20 8 11 1021.8 - 0.0
02/10:00am 17.1 14.6 8.2 56 4.5 W 11 17 6 9 1022.2 - 0.0
02/08:00am 8.4 7.8 7.5 94 0.4 CALM 0 0 0 0 1022.4 - 0.0
02/07:00am 4.8 3.6 4.6 99 0.1 CALM 0 0 0 0 1021.8 - 0.0
02/06:30am 5.3 2.8 4.8 97 0.2 SSW 7 9 4 5 1021.5 - 0.0
02/05:30am 5.3 4.1 4.8 97 0.2 CALM 0 0 0 0 1021.1 - 0.0
02/05:10am 5.5 4.4 5.0 97 0.2 CALM 0 0 0 0 1021.0 - 0.0
02/05:07am 5.6 4.5 5.1 97 0.2 CALM 0 0 0 0 1021.1 - 0.0
02/05:00am 5.6 4.5 5.1 97 0.2 CALM 0 0 0 0 1021.1 - 0.0
02/04:55am 5.8 4.7 5.1 95 0.3 CALM 0 0 0 0 1021.2 - 0.0
02/04:34am 6.1 5.1 5.6 97 0.2 CALM 0 0 0 0 1020.9 - 0.0
02/04:30am 6.2 5.2 5.5 95 0.3 CALM 0 0 0 0 1020.9 - 0.0
02/04:08am 6.6 5.7 6.2 97 0.2 CALM 0 0 0 0 1021.2 - 0.0
02/04:00am 6.6 5.8 6.6 100 0.0 CALM 0 0 0 0 1021.3 - 0.0
02/03:30am 7.1 6.3 6.4 95 0.3 CALM 0 0 0 0 1021.4 - 0.0
02/03:05am 6.5 5.6 6.1 97 0.2 CALM 0 0 0 0 1021.4 - 0.0
02/02:30am 7.9 5.9 7.3 96 0.3 S 7 9 4 5 1021.4 - 0.0
02/02:00am 7.6 5.6 6.9 95 0.3 S 7 11 4 6 1021.6 - 0.0
02/01:30am 8.5 8.0 7.7 95 0.4 CALM 0 0 0 0 1021.5 - 0.0
02/01:00am 8.6 7.4 8.0 96 0.3 SW 4 7 2 4 1021.9 - 0.0
02/12:30am 9.1 7.5 8.1 93 0.5 SW 6 7 3 4 1021.9 - 0.0
 
Date/Time
EST
Temp
°C
App
Temp
°C
Dew
Point
Rel
Hum
%
Delta-T
°C
Wind Press
QNH
hPa
Press
MSL
hPa
Rain
since 9 am
mm
Dir
 
Spd
km/h
Gust
km/h
Spd
kts
Gust
kts
01/11:30pm 9.3 8.8 8.0 92 0.6 CALM 0 0 0 0 1022.2 - 0.0
01/11:00pm 9.9 8.3 8.7 92 0.6 WNW 7 9 4 5 1022.4 - 0.0
01/10:30pm 10.5 8.9 8.9 90 0.8 NW 7 9 4 5 1022.6 - 0.0
01/10:00pm 10.5 9.6 9.1 91 0.7 NW 4 6 2 3 1022.5 - 0.0
01/09:30pm 12.0 10.7 9.2 83 1.4 WNW 6 7 3 4 1022.9 - 0.0
01/08:30pm 12.9 11.5 9.5 80 1.7 W 7 9 4 5 1022.5 - 0.0
01/08:00pm 14.5 12.7 9.6 72 2.5 NW 9 11 5 6 1022.2 - 0.0
01/07:00pm 16.7 14.6 9.6 63 3.7 W 11 20 6 11 1021.7 - 0.0
01/05:30pm 18.5 15.5 9.3 55 4.8 W 15 24 8 13 1020.4 - 0.0
01/05:00pm 20.6 20.0 10.4 52 5.5 WNW 4 9 2 5 1020.2 - 0.0
01/04:30pm 21.5 21.1 12.5 56 5.1 N 6 7 3 4 1020.1 - 0.0
01/04:00pm 21.7 20.3 12.1 54 5.4 NNE 11 11 6 6 1020.0 - 0.0
01/03:30pm 22.6 21.9 12.1 51 5.9 ENE 7 11 4 6 1020.0 - 0.0
01/03:00pm 21.9 21.0 12.5 55 5.3 ESE 9 11 5 6 1020.1 1020.2 0.0
01/02:30pm 21.9 21.9 12.5 55 5.3 ENE 4 9 2 5 1020.4 - 0.0
01/02:00pm 22.9 22.0 11.4 48 6.4 NW 7 13 4 7 1020.6 - 0.0
01/01:30pm 22.2 21.2 12.3 53 5.6 WNW 9 13 5 7 1020.9 - 0.0
01/01:00pm 21.8 20.7 12.0 53 5.5 NW 9 15 5 8 1021.4 - 0.0
01/12:30pm 22.2 21.8 13.1 56 5.2 WSW 7 15 4 8 1021.9 - 0.0
01/12:00pm 20.7 20.5 13.1 61 4.3 N 6 13 3 7 1022.7 1022.8 0.0
01/11:30am 20.7 20.7 13.7 64 4.0 N 6 11 3 6 1023.2 - 0.0
01/11:00am 19.0 19.0 13.5 70 3.1 W 6 11 3 6 1023.9 - 0.0
01/10:30am 18.0 18.2 13.2 73 2.7 NW 4 9 2 5 1024.6 - 0.0
01/10:00am 16.0 16.0 13.5 85 1.4 WNW 6 9 3 5 1025.0 - 0.0
01/09:30am 14.4 14.1 12.8 90 0.9 W 6 9 3 5 1025.0 - 0.0
01/09:00am 13.6 13.1 11.9 89 0.9 SSW 6 9 3 5 1024.8 1024.8 0.0
01/08:30am 12.4 12.1 11.4 94 0.5 SSW 4 7 2 4 1024.8 - 0.0
01/08:00am 12.1 11.1 11.1 94 0.5 SSW 7 9 4 5 1024.5 - 0.0
01/07:30am 10.4 9.6 9.8 96 0.3 SSW 4 9 2 5 1024.4 - 0.0
01/07:00am 9.4 7.4 8.8 96 0.3 SSW 9 11 5 6 1024.0 - 0.0
01/06:30am 9.8 9.7 9.4 97 0.2 CALM 0 0 0 0 1023.8 - 0.0
01/06:00am 9.8 8.6 9.4 97 0.2 SSW 6 7 3 4 1023.6 1023.7 0.0
01/05:30am 9.5 9.3 8.9 96 0.3 CALM 0 0 0 0 1023.5 - 0.0
01/05:00am 8.7 7.2 8.3 97 0.2 SSW 6 9 3 5 1023.5 - 0.0
01/04:59am 8.7 7.0 8.3 97 0.2 SSW 7 9 4 5 1023.5 - 0.0
01/04:57am 8.6 6.9 8.2 97 0.2 SSW 7 9 4 5 1023.5 - 0.0
01/04:30am 8.2 7.7 8.0 99 0.1 CALM 0 0 0 0 1023.5 - 0.0
01/04:00am 8.2 7.7 7.8 97 0.2 CALM 0 0 0 0 1023.3 - 0.0
01/03:48am 8.4 7.9 8.0 97 0.2 CALM 0 0 0 0 1023.5 - 0.0
01/03:35am 8.1 7.6 7.7 97 0.2 CALM 0 0 0 0 1023.6 - 0.0
01/03:30am 8.3 7.9 8.1 99 0.1 CALM 0 0 0 0 1023.6 - 0.0
01/03:00am 8.4 7.9 8.0 97 0.2 CALM 0 0 0 0 1023.9 1024.0 0.0
01/02:55am 8.6 8.2 8.2 97 0.2 CALM 0 0 0 0 1024.0 - 0.0
01/02:38am 9.0 8.7 8.8 99 0.1 CALM 0 0 0 0 1024.1 - 0.0
01/02:31am 9.5 9.3 8.9 96 0.3 CALM 0 0 0 0 1024.1 - 0.0
01/02:30am 9.4 9.1 8.8 96 0.3 CALM 0 0 0 0 1024.3 - 0.0
01/02:00am 8.6 8.2 8.2 97 0.2 CALM 0 0 0 0 1024.4 - 0.0
01/01:30am 9.7 9.6 9.3 97 0.2 CALM 0 6 0 3 1024.7 - 0.0
01/01:12am 9.1 8.4 8.5 96 0.3 SSW 2 7 1 4 1024.9 - 0.0
01/01:08am 8.9 8.2 8.5 97 0.2 SSW 2 7 1 4 1025.0 - 0.0
01/01:04am 8.9 8.6 8.5 97 0.2 CALM 0 0 0 0 1025.1 - 0.0
01/01:00am 8.9 8.6 8.5 97 0.2 CALM 0 0 0 0 1025.0 - 0.0
01/12:45am 9.0 8.6 8.4 96 0.3 CALM 0 0 0 0 1025.0 - 0.0
01/12:30am 9.4 7.4 8.8 96 0.3 SSW 9 13 5 7 1024.9 - 0.0
01/12:10am 10.9 10.2 10.1 95 0.4 NW 4 7 2 4 1025.2 - 0.0
01/12:00am 10.0 8.2 9.4 96 0.3 WNW 9 9 5 5 1025.3 1025.3 0.0
 
Date/Time
EST
Temp
°C
App
Temp
°C
Dew
Point
Rel
Hum
%
Delta-T
°C
Wind Press
QNH
hPa
Press
MSL
hPa
Rain
since 9 am
mm
Dir
 
Spd
km/h
Gust
km/h
Spd
kts
Gust
kts
30/11:35pm 9.7 9.7 9.7 100 0.0 CALM 0 0 0 0 1025.3 - 0.0
30/11:31pm 10.5 10.6 10.3 99 0.1 CALM 0 0 0 0 1025.3 - 0.0
30/11:30pm 10.6 10.7 10.2 97 0.2 CALM 0 0 0 0 1025.3 - 0.0
30/11:00pm 10.5 10.6 10.3 99 0.1 CALM 0 0 0 0 1025.3 - 0.0
30/10:42pm 10.9 11.1 10.5 97 0.2 CALM 0 0 0 0 1025.4 - 0.0
30/10:41pm 11.0 11.2 10.6 97 0.2 CALM 0 0 0 0 1025.4 - 0.0
30/10:30pm 11.4 11.7 11.0 97 0.2 CALM 0 0 0 0 1025.4 - 0.0
30/10:25pm 11.2 11.5 10.8 97 0.2 CALM 0 0 0 0 1025.5 - 0.0
30/10:00pm 11.7 12.1 11.1 96 0.3 CALM 0 0 0 0 1025.6 - 0.0
30/09:50pm 11.8 12.2 11.4 97 0.2 CALM 0 0 0 0 1025.7 - 0.0
30/09:48pm 11.9 12.4 11.5 97 0.2 CALM 0 0 0 0 1025.6 - 0.0
30/09:30pm 12.1 12.6 11.5 96 0.3 CALM 0 0 0 0 1025.6 - 0.0
30/09:00pm 12.3 12.8 11.5 95 0.4 CALM 0 0 0 0 1025.6 1025.6 0.0
30/08:55pm 12.0 12.5 11.6 97 0.2 CALM 0 0 0 0 1025.6 - 0.0
30/08:31pm 12.8 13.4 12.0 95 0.4 CALM 0 0 0 0 1025.5 - 0.0
30/08:30pm 12.6 13.2 11.8 95 0.4 CALM 0 0 0 0 1025.5 - 0.0
30/08:12pm 12.6 13.1 11.7 94 0.5 CALM 0 0 0 0 1025.3 - 0.0
30/08:00pm 13.5 14.3 12.4 93 0.6 CALM 0 0 0 0 1025.2 - 0.0
30/07:30pm 14.7 15.7 13.3 91 0.8 CALM 0 0 0 0 1025.2 - 0.0
30/07:00pm 14.6 15.6 13.3 92 0.7 CALM 0 0 0 0 1024.9 - 0.0
30/06:30pm 15.1 16.2 13.5 90 0.9 CALM 0 0 0 0 1024.5 - 0.0
30/06:00pm 15.5 16.7 13.7 89 1.0 CALM 0 2 0 1 1024.1 1024.2 0.0
30/05:30pm 16.0 17.0 13.3 84 1.5 CALM 0 0 0 0 1023.9 - 0.0
30/05:00pm 18.1 17.9 13.1 72 2.8 N 6 6 3 3 1023.9 - 0.0
30/04:30pm 19.4 19.1 12.8 65 3.7 N 6 7 3 4 1023.8 - 0.0
30/04:00pm 21.2 20.0 11.6 54 5.3 N 9 11 5 6 1023.8 - 0.0
30/03:30pm 21.3 21.4 11.6 54 5.4 NE 2 9 1 5 1023.6 - 0.0
30/03:00pm 21.8 20.5 11.3 51 5.8 E 9 15 5 8 1023.7 1023.8 0.0
30/02:30pm 21.4 19.9 11.9 54 5.3 NNE 11 17 6 9 1023.8 - 0.0
30/02:00pm 21.5 19.9 11.6 53 5.5 E 11 15 6 8 1024.0 - 0.0
30/01:30pm 21.9 20.7 11.7 52 5.7 NNE 9 15 5 8 1024.4 - 0.0
30/01:00pm 21.5 19.9 11.4 52 5.6 ENE 11 17 6 9 1024.8 - 0.0
30/12:30pm 21.6 20.9 11.3 52 5.7 NE 6 13 3 7 1025.4 - 0.0
30/12:00pm 21.5 21.5 13.5 60 4.6 E 6 13 3 7 1026.0 1026.0 0.0
30/11:30am 20.3 20.5 13.1 63 4.1 SSW 4 9 2 5 1026.4 - 0.0
30/11:00am 19.3 20.1 13.7 70 3.2 S 2 9 1 5 1026.9 - 0.0
30/10:30am 18.9 19.0 14.0 73 2.8 E 6 13 3 7 1027.2 - 0.0
30/10:00am 17.7 17.8 14.0 79 2.1 SSW 6 13 3 7 1027.9 - 0.0
30/09:30am 16.5 16.6 14.4 87 1.2 W 7 13 4 7 1028.7 - 0.0
30/09:10am 15.1 15.3 14.7 97 0.2 W 7 9 4 5 1028.7 - 0.0
30/09:00am 14.7 14.9 14.7 100 0.0 W 7 9 4 5 1028.5 1028.5 5.6
30/08:30am 13.9 15.0 13.5 97 0.2 CALM 0 0 0 0 1028.3 - 5.6
30/08:00am 13.0 12.6 13.0 100 0.0 NW 7 11 4 6 1028.2 - 5.6
30/07:30am 13.0 12.2 12.8 99 0.1 SW 9 11 5 6 1028.2 - 5.6
30/07:00am 12.4 11.9 12.0 97 0.2 SW 6 9 3 5 1027.7 - 5.6
30/06:30am 11.9 12.4 11.5 97 0.2 CALM 0 0 0 0 1027.3 - 5.6
30/06:21am 11.8 12.2 11.4 97 0.2 CALM 0 0 0 0 1027.3 - 5.6
30/06:00am 12.6 13.4 12.4 99 0.1 CALM 0 0 0 0 1027.4 1027.4 5.6
30/05:30am 13.1 14.0 12.9 99 0.1 CALM 0 6 0 3 1027.5 - 5.6
30/05:00am 13.2 14.1 12.8 97 0.2 CALM 0 0 0 0 1027.5 - 5.6
30/04:30am 13.5 14.5 13.1 97 0.2 CALM 0 0 0 0 1027.5 - 5.6
30/04:06am 13.7 13.0 13.3 97 0.2 WNW 9 11 5 6 1027.6 - 5.6
30/04:00am 13.8 13.2 13.6 99 0.1 NW 9 11 5 6 1027.6 - 5.6
30/03:51am 13.9 12.9 13.5 97 0.2 NW 11 13 6 7 1027.7 - 5.6
30/03:30am 14.0 15.2 13.8 99 0.1 CALM 0 0 0 0 1027.7 - 5.6
30/03:00am 13.9 13.9 13.5 97 0.2 WNW 6 7 3 4 1027.9 1027.9 5.6
30/02:56am 14.0 14.4 13.6 97 0.2 WNW 4 7 2 4 1027.9 - 5.6
30/02:30am 14.7 14.9 14.2 97 0.3 W 6 7 3 4 1027.9 - 5.4
30/02:00am 15.1 16.5 14.4 96 0.4 CALM 0 0 0 0 1028.2 - 5.4
30/01:30am 15.2 16.6 14.5 96 0.4 CALM 0 0 0 0 1028.2 - 5.4
30/01:00am 15.3 15.6 14.6 96 0.4 S 6 7 3 4 1028.6 - 5.4
30/12:30am 15.2 16.6 14.5 96 0.4 CALM 0 0 0 0 1028.6 - 5.4
30/12:00am 15.2 16.6 14.5 96 0.4 CALM 0 0 0 0 1028.7 1028.7 5.2
 
Date/Time
EST
Temp
°C
App
Temp
°C
Dew
Point
Rel
Hum
%
Delta-T
°C
Wind Press
QNH
hPa
Press
MSL
hPa
Rain
since 9 am
mm
Dir
 
Spd
km/h
Gust
km/h
Spd
kts
Gust
kts
29/11:30pm 15.1 16.6 14.6 97 0.3 CALM 0 7 0 4 1029.0 - 5.2
29/11:00pm 15.2 16.6 14.3 94 0.5 CALM 0 0 0 0 1029.4 - 5.2
29/10:30pm 15.4 15.5 14.5 94 0.5 NE 7 11 4 6 1029.5 - 5.0
29/10:00pm 15.5 14.9 14.6 94 0.5 E 11 15 6 8 1029.7 - 5.0
29/09:30pm 15.7 15.1 14.5 93 0.7 SE 11 17 6 9 1029.6 - 5.0
29/09:00pm 15.5 17.1 14.8 96 0.4 CALM 0 0 0 0 1029.8 1029.8 5.0
29/08:30pm 15.7 16.9 15.0 96 0.4 SSW 2 7 1 4 1029.6 - 5.0
29/08:00pm 15.7 17.3 15.0 96 0.4 CALM 0 0 0 0 1029.5 - 5.0
29/07:30pm 15.8 17.3 14.7 93 0.6 CALM 0 0 0 0 1029.3 - 5.0
29/07:00pm 15.8 17.3 14.7 93 0.6 CALM 0 0 0 0 1029.1 - 5.0
29/06:30pm 16.0 16.2 14.8 93 0.7 SSW 7 9 4 5 1028.9 - 5.0

Other Formats:

Comma delimited format used in spreadsheet applications
http://www.bom.gov.au/fwo/IDQ60801/IDQ60801.94568.axf

JavaScript Object Notation format (JSON) in row-major order
http://www.bom.gov.au/fwo/IDQ60801/IDQ60801.94568.json